createdAt,value
2018-12-09T00:00:40.732Z,12.00
2018-12-09T00:01:40.726Z,12.00
2018-12-09T00:02:40.720Z,12.00
2018-12-09T00:03:40.708Z,12.00
2018-12-09T00:04:41.034Z,12.00
2018-12-09T00:05:40.686Z,12.00
2018-12-09T00:06:40.676Z,12.00
2018-12-09T00:07:40.658Z,16.00
2018-12-09T00:08:40.654Z,16.00
2018-12-09T00:09:40.641Z,16.00
2018-12-09T00:10:40.681Z,16.00
2018-12-09T00:11:40.618Z,16.00
2018-12-09T00:12:40.607Z,16.00
2018-12-09T00:13:40.596Z,16.00
2018-12-09T00:14:40.586Z,16.00
2018-12-09T00:15:40.576Z,16.00
2018-12-09T00:16:40.647Z,16.00
2018-12-09T00:17:40.556Z,16.00
2018-12-09T00:18:40.546Z,16.00
2018-12-09T00:19:40.533Z,16.00
2018-12-09T00:20:40.525Z,16.00
2018-12-09T00:21:51.579Z,16.00
2018-12-09T00:22:40.498Z,16.00
2018-12-09T00:23:40.495Z,16.00
2018-12-09T00:24:40.484Z,16.00
2018-12-09T00:25:40.473Z,16.00
2018-12-09T00:26:40.464Z,16.00
2018-12-09T00:27:40.467Z,16.00
2018-12-09T00:28:40.438Z,16.00
2018-12-09T00:29:40.436Z,16.00
2018-12-09T00:30:40.425Z,16.00
2018-12-09T00:31:40.406Z,16.00
2018-12-09T00:32:40.399Z,16.00
2018-12-09T00:33:40.405Z,16.00
2018-12-09T00:34:40.376Z,16.00
2018-12-09T00:35:40.365Z,16.00
2018-12-09T00:36:40.352Z,16.00
2018-12-09T00:37:40.348Z,16.00
2018-12-09T00:38:40.329Z,16.00
2018-12-09T00:39:40.361Z,12.00
2018-12-09T00:40:40.320Z,16.00
2018-12-09T00:41:40.300Z,16.00
2018-12-09T00:42:43.566Z,16.00
2018-12-09T00:43:40.275Z,12.00
2018-12-09T00:44:40.272Z,12.00
2018-12-09T00:45:40.298Z,12.00
2018-12-09T00:46:40.250Z,16.00
2018-12-09T00:47:40.238Z,12.00
2018-12-09T00:48:40.223Z,12.00
2018-12-09T00:49:40.213Z,16.00
2018-12-09T00:50:40.206Z,16.00
2018-12-09T00:51:40.235Z,16.00
2018-12-09T00:52:50.713Z,16.00
2018-12-09T00:53:40.177Z,16.00
2018-12-09T00:54:40.162Z,16.00
2018-12-09T00:55:40.150Z,16.00
2018-12-09T00:56:40.140Z,16.00
2018-12-09T00:57:40.939Z,16.00
2018-12-09T00:58:40.125Z,16.00
2018-12-09T00:59:40.108Z,16.00
2018-12-09T01:00:40.099Z,16.00
2018-12-09T01:01:40.092Z,16.00
2018-12-09T01:02:40.078Z,16.00
2018-12-09T01:03:40.083Z,16.00
2018-12-09T01:04:40.053Z,16.00
2018-12-09T01:05:40.052Z,16.00
2018-12-09T01:06:40.033Z,16.00
2018-12-09T01:07:40.021Z,16.00
2018-12-09T01:08:40.015Z,16.00
2018-12-09T01:09:40.046Z,16.00
2018-12-09T01:10:39.998Z,16.00
2018-12-09T01:11:39.987Z,16.00
2018-12-09T01:12:39.970Z,16.00
2018-12-09T01:13:39.955Z,16.00
2018-12-09T01:14:39.948Z,16.00
2018-12-09T01:15:40.076Z,16.00
2018-12-09T01:16:39.930Z,16.00
2018-12-09T01:17:47.206Z,16.00
2018-12-09T01:18:39.903Z,16.00
2018-12-09T01:19:39.898Z,16.00
2018-12-09T01:20:39.887Z,16.00
2018-12-09T01:21:40.056Z,16.00
2018-12-09T01:22:39.866Z,16.00
2018-12-09T01:23:39.853Z,16.00
2018-12-09T01:24:39.840Z,16.00
2018-12-09T01:25:39.836Z,16.00
2018-12-09T01:26:39.823Z,12.00
2018-12-09T01:27:39.848Z,16.00
2018-12-09T01:28:39.801Z,16.00
2018-12-09T01:29:39.787Z,16.00
2018-12-09T01:30:39.786Z,16.00
2018-12-09T01:31:39.764Z,16.00
2018-12-09T01:32:39.756Z,16.00
2018-12-09T01:33:39.783Z,16.00
2018-12-09T01:34:39.736Z,16.00
2018-12-09T01:35:39.730Z,16.00
2018-12-09T01:36:39.722Z,16.00
2018-12-09T01:37:39.702Z,16.00
2018-12-09T01:38:39.695Z,16.00
2018-12-09T01:39:39.759Z,16.00
2018-12-09T01:40:39.672Z,16.00
2018-12-09T01:41:39.687Z,16.00
2018-12-09T01:42:39.656Z,12.00
2018-12-09T01:43:39.643Z,16.00
2018-12-09T01:44:39.626Z,12.00
2018-12-09T01:45:39.656Z,16.00
2018-12-09T01:46:39.608Z,12.00
2018-12-09T01:47:39.633Z,16.00
2018-12-09T01:48:49.802Z,12.00
2018-12-09T01:49:39.579Z,16.00
2018-12-09T01:50:39.562Z,16.00
2018-12-09T01:51:39.589Z,12.00
2018-12-09T01:52:39.543Z,16.00
2018-12-09T01:53:39.533Z,16.00
2018-12-09T01:54:39.521Z,12.00
2018-12-09T01:55:39.508Z,12.00
2018-12-09T01:56:39.500Z,12.00
2018-12-09T01:57:39.565Z,12.00
2018-12-09T01:58:39.481Z,16.00
2018-12-09T01:59:39.464Z,16.00
2018-12-09T02:00:39.454Z,12.00
2018-12-09T02:01:39.445Z,12.00
2018-12-09T02:02:39.441Z,12.00
2018-12-09T02:03:40.311Z,12.00
2018-12-09T02:04:39.418Z,16.00
2018-12-09T02:05:39.402Z,12.00
2018-12-09T02:06:39.390Z,12.00
2018-12-09T02:07:39.385Z,12.00
2018-12-09T02:08:39.381Z,16.00
2018-12-09T02:09:39.380Z,12.00
2018-12-09T02:10:39.356Z,12.00
2018-12-09T02:11:39.338Z,12.00
2018-12-09T02:12:39.335Z,16.00
2018-12-09T02:13:39.321Z,16.00
2018-12-09T02:14:39.316Z,16.00
2018-12-09T02:15:39.574Z,16.00
2018-12-09T02:16:39.289Z,16.00
2018-12-09T02:17:39.282Z,16.00
2018-12-09T02:18:39.268Z,16.00
2018-12-09T02:19:49.255Z,16.00
2018-12-09T02:20:39.243Z,16.00
2018-12-09T02:21:39.603Z,16.00
2018-12-09T02:22:39.225Z,16.00
2018-12-09T02:23:39.209Z,16.00
2018-12-09T02:24:39.211Z,16.00
2018-12-09T02:25:39.192Z,16.00
2018-12-09T02:26:39.180Z,16.00
2018-12-09T02:27:39.593Z,16.00
2018-12-09T02:28:39.159Z,16.00
2018-12-09T02:29:39.151Z,16.00
2018-12-09T02:30:39.135Z,16.00
2018-12-09T02:31:39.129Z,16.00
2018-12-09T02:32:39.123Z,16.00
2018-12-09T02:33:39.145Z,16.00
2018-12-09T02:34:39.092Z,16.00
2018-12-09T02:35:39.087Z,16.00
2018-12-09T02:36:39.076Z,16.00
2018-12-09T02:37:39.069Z,16.00
2018-12-09T02:38:39.055Z,16.00
2018-12-09T02:39:39.095Z,16.00
2018-12-09T02:40:39.034Z,16.00
2018-12-09T02:41:39.131Z,16.00
2018-12-09T02:42:39.012Z,16.00
2018-12-09T02:43:39.010Z,16.00
2018-12-09T02:44:38.993Z,16.00
2018-12-09T02:45:39.000Z,16.00
2018-12-09T02:46:38.969Z,16.00
2018-12-09T02:47:38.953Z,16.00
2018-12-09T02:48:38.944Z,16.00
2018-12-09T02:49:38.944Z,16.00
2018-12-09T02:50:50.103Z,16.00
2018-12-09T02:51:38.911Z,16.00
2018-12-09T02:52:38.905Z,16.00
2018-12-09T02:53:38.896Z,16.00
2018-12-09T02:54:38.879Z,16.00
2018-12-09T02:55:38.877Z,16.00
2018-12-09T02:56:38.894Z,16.00
2018-12-09T02:57:38.846Z,16.00
2018-12-09T02:58:45.827Z,16.00
2018-12-09T02:59:38.827Z,16.00
2018-12-09T03:00:38.816Z,16.00
2018-12-09T03:01:38.807Z,16.00
2018-12-09T03:02:39.583Z,16.00
2018-12-09T03:03:46.067Z,16.00
2018-12-09T03:04:38.780Z,16.00
2018-12-09T03:05:38.764Z,16.00
2018-12-09T03:06:38.758Z,16.00
2018-12-09T03:07:38.748Z,16.00
2018-12-09T03:08:38.777Z,16.00
2018-12-09T03:09:45.722Z,16.00
2018-12-09T03:10:38.712Z,16.00
2018-12-09T03:11:38.699Z,16.00
2018-12-09T03:12:38.689Z,16.00
2018-12-09T03:13:38.682Z,16.00
2018-12-09T03:14:38.707Z,16.00
2018-12-09T03:15:38.659Z,16.00
2018-12-09T03:16:38.652Z,16.00
2018-12-09T03:17:38.637Z,16.00
2018-12-09T03:18:38.631Z,16.00
2018-12-09T03:19:38.620Z,16.00
2018-12-09T03:20:46.772Z,16.00
2018-12-09T03:21:38.597Z,16.00
2018-12-09T03:22:38.579Z,16.00
2018-12-09T03:23:38.575Z,16.00
2018-12-09T03:24:38.560Z,16.00
2018-12-09T03:25:38.566Z,16.00
2018-12-09T03:26:38.576Z,16.00
2018-12-09T03:27:38.535Z,16.00
2018-12-09T03:28:38.531Z,16.00
2018-12-09T03:29:38.512Z,16.00
2018-12-09T03:30:45.483Z,16.00
2018-12-09T03:31:38.495Z,16.00
2018-12-09T03:32:38.556Z,16.00
2018-12-09T03:33:38.465Z,16.00
2018-12-09T03:34:38.458Z,16.00
2018-12-09T03:35:38.444Z,16.00
2018-12-09T03:36:38.446Z,16.00
2018-12-09T03:37:46.252Z,16.00
2018-12-09T03:38:38.412Z,16.00
2018-12-09T03:39:38.403Z,16.00
2018-12-09T03:40:38.388Z,16.00
2018-12-09T03:41:45.366Z,16.00
2018-12-09T03:42:38.369Z,16.00
2018-12-09T03:43:38.396Z,16.00
2018-12-09T03:44:38.347Z,16.00
2018-12-09T03:45:38.339Z,16.00
2018-12-09T03:46:38.324Z,16.00
2018-12-09T03:47:38.316Z,16.00
2018-12-09T03:48:38.307Z,16.00
2018-12-09T03:49:38.795Z,16.00
2018-12-09T03:50:38.281Z,16.00
2018-12-09T03:51:38.274Z,16.00
2018-12-09T03:52:38.260Z,16.00
2018-12-09T03:53:38.267Z,16.00
2018-12-09T03:54:38.238Z,16.00
2018-12-09T03:55:38.775Z,16.00
2018-12-09T03:56:38.220Z,16.00
2018-12-09T03:57:38.204Z,16.00
2018-12-09T03:58:45.184Z,16.00
2018-12-09T03:59:38.195Z,16.00
2018-12-09T04:00:38.179Z,16.00
2018-12-09T04:01:38.803Z,16.00
2018-12-09T04:02:38.182Z,16.00
2018-12-09T04:03:38.150Z,16.00
2018-12-09T04:04:38.135Z,16.00
2018-12-09T04:05:38.121Z,16.00
2018-12-09T04:06:38.112Z,16.00
2018-12-09T04:07:38.135Z,16.00
2018-12-09T04:08:38.091Z,16.00
2018-12-09T04:09:38.080Z,16.00
2018-12-09T04:10:38.069Z,16.00
2018-12-09T04:11:38.057Z,16.00
2018-12-09T04:12:38.049Z,12.00
2018-12-09T04:13:38.825Z,12.00
2018-12-09T04:14:38.021Z,12.00
2018-12-09T04:15:38.012Z,16.00
2018-12-09T04:16:44.987Z,16.00
2018-12-09T04:17:37.990Z,16.00
2018-12-09T04:18:45.854Z,16.00
2018-12-09T04:19:37.972Z,16.00
2018-12-09T04:20:37.958Z,16.00
2018-12-09T04:21:44.933Z,16.00
2018-12-09T04:22:37.938Z,16.00
2018-12-09T04:23:44.912Z,16.00
2018-12-09T04:24:45.420Z,16.00
2018-12-09T04:25:37.911Z,16.00
2018-12-09T04:26:37.892Z,16.00
2018-12-09T04:27:37.891Z,16.00
2018-12-09T04:28:37.885Z,16.00
2018-12-09T04:29:37.878Z,16.00
2018-12-09T04:30:37.893Z,16.00
2018-12-09T04:31:37.849Z,16.00
2018-12-09T04:32:44.819Z,16.00
2018-12-09T04:33:37.823Z,16.00
2018-12-09T04:34:37.926Z,16.00
2018-12-09T04:35:37.801Z,16.00
2018-12-09T04:36:37.823Z,16.00
2018-12-09T04:37:37.786Z,16.00
2018-12-09T04:38:37.837Z,16.00
2018-12-09T04:39:37.756Z,16.00
2018-12-09T04:40:37.743Z,16.00
2018-12-09T04:41:37.743Z,16.00
2018-12-09T04:42:37.938Z,16.00
2018-12-09T04:43:44.700Z,16.00
2018-12-09T04:44:37.708Z,16.00
2018-12-09T04:45:37.694Z,12.00
2018-12-09T04:46:37.680Z,16.00
2018-12-09T04:47:37.668Z,16.00
2018-12-09T04:48:37.703Z,16.00
2018-12-09T04:49:37.648Z,16.00
2018-12-09T04:50:37.643Z,16.00
2018-12-09T04:51:37.631Z,16.00
2018-12-09T04:52:37.618Z,16.00
2018-12-09T04:53:37.611Z,16.00
2018-12-09T04:54:37.610Z,16.00
2018-12-09T04:55:37.589Z,16.00
2018-12-09T04:56:37.584Z,16.00
2018-12-09T04:57:37.563Z,16.00
2018-12-09T04:58:37.556Z,16.00
2018-12-09T04:59:37.538Z,16.00
2018-12-09T05:00:37.926Z,16.00
2018-12-09T05:01:37.566Z,16.00
2018-12-09T05:02:37.512Z,16.00
2018-12-09T05:03:37.512Z,16.00
2018-12-09T05:04:44.559Z,12.00
2018-12-09T05:05:37.474Z,16.00
2018-12-09T05:06:37.506Z,12.00
2018-12-09T05:07:37.461Z,12.00
2018-12-09T05:08:37.442Z,16.00
2018-12-09T05:09:37.446Z,12.00
2018-12-09T05:10:37.427Z,12.00
2018-12-09T05:11:37.414Z,12.00
2018-12-09T05:12:37.445Z,12.00
2018-12-09T05:13:37.398Z,12.00
2018-12-09T05:14:37.387Z,12.00
2018-12-09T05:15:37.378Z,12.00
2018-12-09T05:16:37.358Z,12.00
2018-12-09T05:17:37.359Z,12.00
2018-12-09T05:18:37.380Z,12.00
2018-12-09T05:19:37.328Z,12.00
2018-12-09T05:20:37.318Z,12.00
2018-12-09T05:21:37.307Z,12.00
2018-12-09T05:22:37.299Z,12.00
2018-12-09T05:23:37.285Z,12.00
2018-12-09T05:24:37.319Z,12.00
2018-12-09T05:25:37.262Z,12.00
2018-12-09T05:26:37.252Z,12.00
2018-12-09T05:27:37.247Z,12.00
2018-12-09T05:28:37.231Z,12.00
2018-12-09T05:29:37.220Z,12.00
2018-12-09T05:30:37.469Z,12.00
2018-12-09T05:31:37.201Z,12.00
2018-12-09T05:32:37.190Z,12.00
2018-12-09T05:33:37.181Z,12.00
2018-12-09T05:34:37.165Z,12.00
2018-12-09T05:35:47.974Z,16.00
2018-12-09T05:36:37.151Z,12.00
2018-12-09T05:37:37.141Z,12.00
2018-12-09T05:38:37.126Z,12.00
2018-12-09T05:39:37.117Z,16.00
2018-12-09T05:40:37.108Z,12.00
2018-12-09T05:41:37.127Z,12.00
2018-12-09T05:42:37.089Z,12.00
2018-12-09T05:43:37.077Z,12.00
2018-12-09T05:44:37.059Z,12.00
2018-12-09T05:45:37.048Z,12.00
2018-12-09T05:46:37.046Z,16.00
2018-12-09T05:47:37.074Z,16.00
2018-12-09T05:48:37.019Z,12.00
2018-12-09T05:49:37.011Z,12.00
2018-12-09T05:50:36.999Z,12.00
2018-12-09T05:51:36.987Z,12.00
2018-12-09T05:52:37.068Z,16.00
2018-12-09T05:53:37.474Z,16.00
2018-12-09T05:54:37.038Z,12.00
2018-12-09T05:55:36.942Z,12.00
2018-12-09T05:56:36.933Z,16.00
2018-12-09T05:57:36.925Z,16.00
2018-12-09T05:58:36.913Z,16.00
2018-12-09T05:59:36.947Z,16.00
2018-12-09T06:00:36.891Z,16.00
2018-12-09T06:01:36.885Z,16.00
2018-12-09T06:02:36.867Z,16.00
2018-12-09T06:03:36.984Z,16.00
2018-12-09T06:04:36.848Z,16.00
2018-12-09T06:05:37.631Z,16.00
2018-12-09T06:06:49.103Z,16.00
2018-12-09T06:07:36.865Z,16.00
2018-12-09T06:08:36.809Z,16.00
2018-12-09T06:09:36.799Z,16.00
2018-12-09T06:10:36.787Z,16.00
2018-12-09T06:11:36.794Z,16.00
2018-12-09T06:12:36.760Z,12.00
2018-12-09T06:13:36.754Z,12.00
2018-12-09T06:14:36.746Z,12.00
2018-12-09T06:15:36.736Z,12.00
2018-12-09T06:16:36.723Z,12.00
2018-12-09T06:17:36.747Z,12.00
2018-12-09T06:18:36.698Z,12.00
2018-12-09T06:19:36.688Z,12.00
2018-12-09T06:20:36.682Z,16.00
2018-12-09T06:21:36.673Z,16.00
2018-12-09T06:22:36.659Z,16.00
2018-12-09T06:23:36.980Z,16.00
2018-12-09T06:24:36.638Z,16.00
2018-12-09T06:25:36.621Z,16.00
2018-12-09T06:26:36.614Z,16.00
2018-12-09T06:27:36.599Z,16.00
2018-12-09T06:28:36.592Z,16.00
2018-12-09T06:29:36.980Z,20.00
2018-12-09T06:30:36.570Z,16.00
2018-12-09T06:31:36.562Z,16.00
2018-12-09T06:32:36.557Z,20.00
2018-12-09T06:33:36.537Z,20.00
2018-12-09T06:34:36.530Z,20.00
2018-12-09T06:35:36.554Z,20.00
2018-12-09T06:36:36.512Z,20.00
2018-12-09T06:37:46.816Z,24.00
2018-12-09T06:38:36.486Z,24.00
2018-12-09T06:39:36.475Z,24.00
2018-12-09T06:40:36.464Z,24.00
2018-12-09T06:41:36.496Z,28.00
2018-12-09T06:42:36.441Z,28.00
2018-12-09T06:43:36.436Z,32.00
2018-12-09T06:44:36.432Z,36.00
2018-12-09T06:45:36.412Z,40.00
2018-12-09T06:46:36.401Z,40.00
2018-12-09T06:47:36.434Z,36.00
2018-12-09T06:48:36.379Z,36.00
2018-12-09T06:49:36.371Z,40.00
2018-12-09T06:50:36.359Z,44.00
2018-12-09T06:51:36.351Z,52.00
2018-12-09T06:52:36.334Z,56.00
2018-12-09T06:53:36.368Z,60.00
2018-12-09T06:54:36.316Z,64.00
2018-12-09T06:55:36.311Z,68.00
2018-12-09T06:56:36.289Z,68.00
2018-12-09T06:57:36.280Z,72.00
2018-12-09T06:58:36.273Z,72.00
2018-12-09T06:59:36.483Z,76.00
2018-12-09T07:00:36.246Z,76.00
2018-12-09T07:01:36.243Z,76.00
2018-12-09T07:02:36.226Z,76.00
2018-12-09T07:03:36.220Z,84.00
2018-12-09T07:04:36.206Z,88.00
2018-12-09T07:05:36.477Z,88.00
2018-12-09T07:06:36.188Z,92.00
2018-12-09T07:07:36.184Z,100.00
2018-12-09T07:08:46.152Z,96.00
2018-12-09T07:09:36.154Z,96.00
2018-12-09T07:10:36.144Z,100.00
2018-12-09T07:11:36.170Z,108.00
2018-12-09T07:12:36.123Z,116.00
2018-12-09T07:13:36.159Z,116.00
2018-12-09T07:14:36.100Z,116.00
2018-12-09T07:15:36.086Z,124.00
2018-12-09T07:16:36.079Z,128.00
2018-12-09T07:17:36.082Z,132.00
2018-12-09T07:18:36.054Z,140.00
2018-12-09T07:19:36.046Z,144.00
2018-12-09T07:20:36.039Z,148.00
2018-12-09T07:21:36.032Z,164.00
2018-12-09T07:22:36.018Z,168.00
2018-12-09T07:23:36.041Z,180.00
2018-12-09T07:24:35.992Z,188.00
2018-12-09T07:25:35.979Z,200.00
2018-12-09T07:26:35.970Z,220.00
2018-12-09T07:27:35.972Z,236.00
2018-12-09T07:28:35.950Z,236.00
2018-12-09T07:29:35.961Z,236.00
2018-12-09T07:30:35.927Z,244.00
2018-12-09T07:31:35.918Z,256.00
2018-12-09T07:32:35.911Z,264.00
2018-12-09T07:33:35.893Z,268.00
2018-12-09T07:34:35.893Z,276.00
2018-12-09T07:35:35.911Z,276.00
2018-12-09T07:36:35.864Z,296.00
2018-12-09T07:37:35.856Z,308.00
2018-12-09T07:38:35.847Z,304.00
2018-12-09T07:39:46.179Z,304.00
2018-12-09T07:40:35.825Z,320.00
2018-12-09T07:41:36.795Z,328.00
2018-12-09T07:42:35.802Z,344.00
2018-12-09T07:43:35.788Z,356.00
2018-12-09T07:44:35.785Z,352.00
2018-12-09T07:45:35.781Z,352.00
2018-12-09T07:46:35.754Z,336.00
2018-12-09T07:47:36.541Z,336.00
2018-12-09T07:48:35.739Z,344.00
2018-12-09T07:49:35.728Z,352.00
2018-12-09T07:50:35.720Z,372.00
2018-12-09T07:51:35.704Z,380.00
2018-12-09T07:52:35.695Z,388.00
2018-12-09T07:53:35.720Z,416.00
2018-12-09T07:54:35.672Z,396.00
2018-12-09T07:55:35.658Z,396.00
2018-12-09T07:56:35.651Z,408.00
2018-12-09T07:57:35.644Z,420.00
2018-12-09T07:58:35.629Z,432.00
2018-12-09T07:59:36.099Z,456.00
2018-12-09T08:00:35.607Z,500.00
2018-12-09T08:01:35.597Z,536.00
2018-12-09T08:02:35.589Z,544.00
2018-12-09T08:03:35.577Z,548.00
2018-12-09T08:04:35.563Z,556.00
2018-12-09T08:05:35.595Z,536.00
2018-12-09T08:06:35.541Z,544.00
2018-12-09T08:07:35.533Z,540.00
2018-12-09T08:08:35.522Z,540.00
2018-12-09T08:09:35.516Z,528.00
2018-12-09T08:10:45.568Z,564.00
2018-12-09T08:11:35.488Z,560.00
2018-12-09T08:12:35.485Z,552.00
2018-12-09T08:13:35.469Z,556.00
2018-12-09T08:14:35.461Z,576.00
2018-12-09T08:15:35.453Z,572.00
2018-12-09T08:16:36.210Z,588.00
2018-12-09T08:17:35.430Z,596.00
2018-12-09T08:18:35.418Z,588.00
2018-12-09T08:19:35.458Z,568.00
2018-12-09T08:20:35.395Z,576.00
2018-12-09T08:21:35.386Z,588.00
2018-12-09T08:22:35.537Z,624.00
2018-12-09T08:23:35.361Z,696.00
2018-12-09T08:24:35.352Z,744.00
2018-12-09T08:25:35.344Z,752.00
2018-12-09T08:26:42.317Z,764.00
2018-12-09T08:27:35.319Z,768.00
2018-12-09T08:28:35.343Z,780.00
2018-12-09T08:29:35.391Z,764.00
2018-12-09T08:30:35.287Z,772.00
2018-12-09T08:31:42.267Z,808.00
2018-12-09T08:32:42.254Z,880.00
2018-12-09T08:33:35.253Z,928.00
2018-12-09T08:34:35.631Z,1020.00
2018-12-09T08:35:35.234Z,1152.00
2018-12-09T08:36:35.319Z,1228.00
2018-12-09T08:37:35.222Z,1160.00
2018-12-09T08:38:35.205Z,1256.00
2018-12-09T08:39:35.195Z,1184.00
2018-12-09T08:40:35.627Z,1268.00
2018-12-09T08:41:35.172Z,1212.00
2018-12-09T08:42:35.157Z,1264.00
2018-12-09T08:43:35.167Z,1228.00
2018-12-09T08:44:35.137Z,1344.00
2018-12-09T08:45:35.138Z,1372.00
2018-12-09T08:46:35.133Z,1348.00
2018-12-09T08:47:35.159Z,1252.00
2018-12-09T08:48:35.096Z,1300.00
2018-12-09T08:49:35.142Z,1336.00
2018-12-09T08:50:35.075Z,1244.00
2018-12-09T08:51:35.062Z,1144.00
2018-12-09T08:52:35.108Z,1172.00
2018-12-09T08:53:35.046Z,1240.00
2018-12-09T08:54:35.045Z,1076.00
2018-12-09T08:55:35.019Z,1012.00
2018-12-09T08:56:35.048Z,1052.00
2018-12-09T08:57:35.003Z,1052.00
2018-12-09T08:58:35.066Z,1100.00
2018-12-09T08:59:34.981Z,1120.00
2018-12-09T09:00:34.969Z,1040.00
2018-12-09T09:01:34.979Z,1016.00
2018-12-09T09:02:34.953Z,1028.00
2018-12-09T09:03:45.173Z,1048.00
2018-12-09T09:04:34.924Z,1080.00
2018-12-09T09:05:34.917Z,1044.00
2018-12-09T09:06:34.906Z,1056.00
2018-12-09T09:07:34.900Z,1080.00
2018-12-09T09:08:34.884Z,1088.00
2018-12-09T09:09:35.698Z,1064.00
2018-12-09T09:10:34.871Z,1048.00
2018-12-09T09:11:34.854Z,1092.00
2018-12-09T09:12:34.846Z,1052.00
2018-12-09T09:13:34.831Z,1040.00
2018-12-09T09:14:34.816Z,1064.00
2018-12-09T09:15:35.117Z,1088.00
2018-12-09T09:16:34.803Z,1060.00
2018-12-09T09:17:34.787Z,1064.00
2018-12-09T09:18:34.774Z,1028.00
2018-12-09T09:19:34.772Z,1056.00
2018-12-09T09:20:34.755Z,1044.00
2018-12-09T09:21:34.781Z,1068.00
2018-12-09T09:22:36.385Z,1072.00
2018-12-09T09:23:34.730Z,1024.00
2018-12-09T09:24:34.715Z,928.00
2018-12-09T09:25:34.701Z,956.00
2018-12-09T09:26:34.695Z,880.00
2018-12-09T09:27:34.740Z,920.00
2018-12-09T09:28:34.677Z,888.00
2018-12-09T09:29:34.672Z,732.00
2018-12-09T09:30:34.652Z,744.00
2018-12-09T09:31:34.635Z,736.00
2018-12-09T09:32:34.631Z,744.00
2018-12-09T09:33:37.388Z,756.00
2018-12-09T09:34:45.316Z,752.00
2018-12-09T09:35:34.601Z,756.00
2018-12-09T09:36:34.584Z,792.00
2018-12-09T09:37:34.574Z,812.00
2018-12-09T09:38:34.565Z,832.00
2018-12-09T09:39:34.601Z,844.00
2018-12-09T09:40:34.540Z,812.00
2018-12-09T09:41:34.530Z,828.00
2018-12-09T09:42:34.533Z,916.00
2018-12-09T09:43:34.509Z,980.00
2018-12-09T09:44:34.497Z,976.00
2018-12-09T09:45:34.561Z,944.00
2018-12-09T09:46:34.478Z,972.00
2018-12-09T09:47:34.472Z,960.00
2018-12-09T09:48:34.573Z,964.00
2018-12-09T09:49:34.443Z,1028.00
2018-12-09T09:50:34.438Z,1096.00
2018-12-09T09:51:34.445Z,1044.00
2018-12-09T09:52:34.429Z,1080.00
2018-12-09T09:53:34.410Z,1176.00
2018-12-09T09:54:34.398Z,1144.00
2018-12-09T09:55:34.391Z,1060.00
2018-12-09T09:56:34.374Z,1072.00
2018-12-09T09:57:34.434Z,1168.00
2018-12-09T09:58:34.352Z,1176.00
2018-12-09T09:59:34.342Z,1156.00
2018-12-09T10:00:34.329Z,1164.00
2018-12-09T10:01:34.317Z,1184.00
2018-12-09T10:02:34.308Z,1212.00
2018-12-09T10:03:34.334Z,1172.00
2018-12-09T10:04:34.285Z,1204.00
2018-12-09T10:05:45.171Z,1184.00
2018-12-09T10:06:34.265Z,1184.00
2018-12-09T10:07:34.255Z,1156.00
2018-12-09T10:08:34.246Z,1136.00
2018-12-09T10:09:34.638Z,1092.00
2018-12-09T10:10:34.221Z,1056.00
2018-12-09T10:11:34.217Z,1124.00
2018-12-09T10:12:34.210Z,1152.00
2018-12-09T10:13:34.195Z,1148.00
2018-12-09T10:14:34.177Z,1132.00
2018-12-09T10:15:34.963Z,1124.00
2018-12-09T10:16:34.159Z,1100.00
2018-12-09T10:17:34.156Z,1148.00
2018-12-09T10:18:34.143Z,1092.00
2018-12-09T10:19:34.128Z,1044.00
2018-12-09T10:20:34.114Z,1048.00
2018-12-09T10:21:34.147Z,1016.00
2018-12-09T10:22:34.094Z,1000.00
2018-12-09T10:23:34.089Z,1004.00
2018-12-09T10:24:34.074Z,984.00
2018-12-09T10:25:34.064Z,1036.00
2018-12-09T10:26:36.642Z,1032.00
2018-12-09T10:27:34.059Z,1036.00
2018-12-09T10:28:34.032Z,1028.00
2018-12-09T10:29:34.019Z,1052.00
2018-12-09T10:30:34.012Z,1084.00
2018-12-09T10:31:41.295Z,1072.00
2018-12-09T10:32:41.688Z,1012.00
2018-12-09T10:33:33.980Z,1020.00
2018-12-09T10:34:38.786Z,968.00
2018-12-09T10:35:34.960Z,960.00
2018-12-09T10:36:33.943Z,928.00
2018-12-09T10:37:33.940Z,984.00
2018-12-09T10:38:34.194Z,956.00
2018-12-09T10:39:33.925Z,988.00
2018-12-09T10:40:33.915Z,972.00
2018-12-09T10:41:33.897Z,1040.00
2018-12-09T10:42:33.880Z,992.00
2018-12-09T10:43:33.873Z,940.00
2018-12-09T10:44:33.898Z,920.00
2018-12-09T10:45:33.855Z,956.00
2018-12-09T10:46:33.849Z,960.00
2018-12-09T10:47:33.843Z,868.00
2018-12-09T10:48:33.822Z,888.00
2018-12-09T10:49:33.811Z,964.00
2018-12-09T10:50:33.834Z,888.00
2018-12-09T10:51:33.789Z,844.00
2018-12-09T10:52:33.776Z,848.00
2018-12-09T10:53:33.768Z,796.00
2018-12-09T10:54:33.770Z,768.00
2018-12-09T10:55:33.741Z,724.00
2018-12-09T10:56:33.752Z,756.00
2018-12-09T10:57:33.728Z,780.00
2018-12-09T10:58:33.709Z,796.00
2018-12-09T10:59:33.699Z,820.00
2018-12-09T11:00:33.698Z,804.00
2018-12-09T11:01:34.607Z,764.00
2018-12-09T11:02:33.705Z,712.00
2018-12-09T11:03:44.037Z,704.00
2018-12-09T11:04:40.943Z,724.00
2018-12-09T11:05:40.623Z,804.00
2018-12-09T11:06:40.616Z,812.00
2018-12-09T11:07:33.617Z,776.00
2018-12-09T11:08:33.759Z,764.00
2018-12-09T11:09:33.599Z,744.00
2018-12-09T11:10:33.596Z,700.00
2018-12-09T11:11:33.581Z,708.00
2018-12-09T11:12:33.563Z,708.00
2018-12-09T11:13:33.555Z,692.00
2018-12-09T11:14:33.596Z,676.00
2018-12-09T11:15:33.533Z,664.00
2018-12-09T11:16:33.519Z,632.00
2018-12-09T11:17:33.786Z,648.00
2018-12-09T11:18:33.498Z,652.00
2018-12-09T11:19:33.498Z,652.00
2018-12-09T11:20:33.532Z,616.00
2018-12-09T11:21:33.468Z,636.00
2018-12-09T11:22:33.461Z,628.00
2018-12-09T11:23:33.445Z,616.00
2018-12-09T11:24:33.434Z,644.00
2018-12-09T11:25:33.437Z,668.00
2018-12-09T11:26:33.450Z,688.00
2018-12-09T11:27:33.420Z,684.00
2018-12-09T11:28:33.394Z,700.00
2018-12-09T11:29:33.380Z,696.00
2018-12-09T11:30:33.375Z,676.00
2018-12-09T11:31:33.367Z,700.00
2018-12-09T11:32:33.427Z,732.00
2018-12-09T11:33:33.345Z,764.00
2018-12-09T11:34:33.328Z,764.00
2018-12-09T11:35:33.317Z,796.00
2018-12-09T11:36:33.305Z,784.00
2018-12-09T11:37:45.019Z,752.00
2018-12-09T11:38:33.287Z,716.00
2018-12-09T11:39:33.274Z,684.00
2018-12-09T11:40:33.273Z,728.00
2018-12-09T11:41:33.255Z,716.00
2018-12-09T11:42:33.249Z,732.00
2018-12-09T11:43:33.764Z,716.00
2018-12-09T11:44:33.225Z,700.00
2018-12-09T11:45:33.215Z,680.00
2018-12-09T11:46:33.204Z,648.00
2018-12-09T11:47:33.196Z,588.00
2018-12-09T11:48:33.185Z,568.00
2018-12-09T11:49:33.284Z,584.00
2018-12-09T11:50:33.163Z,600.00
2018-12-09T11:51:33.146Z,596.00
2018-12-09T11:52:33.141Z,564.00
2018-12-09T11:53:33.127Z,572.00
2018-12-09T11:54:33.119Z,540.00
2018-12-09T11:55:33.124Z,516.00
2018-12-09T11:56:33.101Z,476.00
2018-12-09T11:57:33.090Z,480.00
2018-12-09T11:58:33.079Z,500.00
2018-12-09T11:59:33.064Z,504.00
2018-12-09T12:00:33.056Z,524.00
2018-12-09T12:01:33.058Z,532.00
2018-12-09T12:02:33.035Z,516.00
2018-12-09T12:03:33.021Z,488.00
2018-12-09T12:04:33.012Z,488.00
2018-12-09T12:05:32.999Z,512.00
2018-12-09T12:06:32.987Z,524.00
2018-12-09T12:07:33.019Z,488.00
2018-12-09T12:08:45.107Z,480.00
2018-12-09T12:09:32.958Z,512.00
2018-12-09T12:10:32.945Z,536.00
2018-12-09T12:11:32.938Z,532.00
2018-12-09T12:12:32.927Z,504.00
2018-12-09T12:13:32.961Z,460.00
2018-12-09T12:14:32.910Z,412.00
2018-12-09T12:15:32.895Z,400.00
2018-12-09T12:16:32.884Z,412.00
2018-12-09T12:17:32.881Z,436.00
2018-12-09T12:18:32.866Z,428.00
2018-12-09T12:19:32.892Z,416.00
2018-12-09T12:20:32.844Z,404.00
2018-12-09T12:21:32.834Z,384.00
2018-12-09T12:22:32.829Z,384.00
2018-12-09T12:23:32.811Z,376.00
2018-12-09T12:24:32.797Z,368.00
2018-12-09T12:25:32.808Z,356.00
2018-12-09T12:26:32.773Z,340.00
2018-12-09T12:27:32.763Z,316.00
2018-12-09T12:28:32.769Z,284.00
2018-12-09T12:29:32.747Z,268.00
2018-12-09T12:30:32.736Z,288.00
2018-12-09T12:31:32.756Z,300.00
2018-12-09T12:32:32.711Z,276.00
2018-12-09T12:33:32.698Z,296.00
2018-12-09T12:34:32.706Z,292.00
2018-12-09T12:35:32.683Z,296.00
2018-12-09T12:36:32.670Z,284.00
2018-12-09T12:37:32.695Z,268.00
2018-12-09T12:38:32.655Z,240.00